createdAt,value
2019-01-27T00:01:41.949Z,27.60
2019-01-27T00:04:13.015Z,28.40
2019-01-27T00:06:43.907Z,30.77
2019-01-27T00:09:14.836Z,26.67
2019-01-27T00:11:45.863Z,29.37
2019-01-27T00:14:16.752Z,31.17
2019-01-27T00:16:48.046Z,31.03
2019-01-27T00:19:19.024Z,29.00
2019-01-27T00:21:49.907Z,28.00
2019-01-27T00:24:20.828Z,25.87
2019-01-27T00:26:51.697Z,27.13
2019-01-27T00:29:24.165Z,28.50
2019-01-27T00:31:55.140Z,57.10
2019-01-27T00:34:26.012Z,43.83
2019-01-27T00:36:56.908Z,39.87
2019-01-27T00:39:27.832Z,39.67
2019-01-27T00:42:00.276Z,43.57
2019-01-27T00:44:31.173Z,41.27
2019-01-27T00:47:02.157Z,36.40
2019-01-27T00:49:33.023Z,89.70
2019-01-27T00:52:04.078Z,100.10
2019-01-27T00:54:34.992Z,55.10
2019-01-27T00:57:06.181Z,52.27
2019-01-27T00:59:37.087Z,39.30
2019-01-27T01:02:07.953Z,38.80
2019-01-27T01:04:38.837Z,30.37
2019-01-27T01:07:11.517Z,34.70
2019-01-27T01:09:42.397Z,31.77
2019-01-27T01:12:13.275Z,41.33
2019-01-27T01:14:46.736Z,42.67
2019-01-27T01:17:17.711Z,47.10
2019-01-27T01:19:48.635Z,43.90
2019-01-27T01:22:20.226Z,31.77
2019-01-27T01:24:51.108Z,36.23
2019-01-27T01:27:22.173Z,26.33
2019-01-27T01:29:53.046Z,26.20
2019-01-27T01:32:23.936Z,20.73
2019-01-27T01:34:54.966Z,24.67
2019-01-27T01:37:25.948Z,24.80
2019-01-27T01:39:56.840Z,23.67
2019-01-27T01:42:27.831Z,33.10
2019-01-27T01:45:00.292Z,32.73
2019-01-27T01:47:31.219Z,34.07
2019-01-27T01:50:02.145Z,29.73
2019-01-27T01:52:33.036Z,34.77
2019-01-27T01:55:04.170Z,40.23
2019-01-27T01:57:35.148Z,36.67
2019-01-27T02:00:08.305Z,31.10
2019-01-27T02:02:39.250Z,74.53
2019-01-27T02:05:10.973Z,68.10
2019-01-27T02:07:41.858Z,53.60
2019-01-27T02:10:13.849Z,29.30
2019-01-27T02:12:44.828Z,24.47
2019-01-27T02:16:05.162Z,21.80
2019-01-27T02:18:36.298Z,20.53
2019-01-27T02:21:08.197Z,23.63
2019-01-27T02:23:39.296Z,23.43
2019-01-27T02:26:10.697Z,21.00
2019-01-27T02:28:41.648Z,25.03
2019-01-27T02:31:12.526Z,26.80
2019-01-27T02:33:43.397Z,19.40
2019-01-27T02:36:14.395Z,22.50
2019-01-27T02:38:45.285Z,23.03
2019-01-27T02:41:16.177Z,23.93
2019-01-27T02:43:47.118Z,21.80
2019-01-27T02:46:18.244Z,20.43
2019-01-27T02:48:49.226Z,22.70
2019-01-27T02:51:22.030Z,20.57
2019-01-27T02:53:55.668Z,20.83
2019-01-27T02:56:26.616Z,25.47
2019-01-27T02:58:57.502Z,35.17
2019-01-27T03:01:28.417Z,39.57
2019-01-27T03:03:59.317Z,50.57
2019-01-27T03:06:49.224Z,67.83
2019-01-27T03:09:27.146Z,55.00
2019-01-27T03:11:59.499Z,50.63
2019-01-27T03:14:30.381Z,44.60
2019-01-27T03:17:01.254Z,44.10
2019-01-27T03:19:32.295Z,42.97
2019-01-27T03:22:03.285Z,41.70
2019-01-27T03:24:34.189Z,45.10
2019-01-27T03:27:05.392Z,41.83
2019-01-27T03:29:36.285Z,32.50
2019-01-27T03:32:07.148Z,25.03
2019-01-27T03:34:38.072Z,25.07
2019-01-27T03:37:08.941Z,29.10
2019-01-27T03:39:39.829Z,26.10
2019-01-27T03:42:11.433Z,23.67
2019-01-27T03:44:42.327Z,27.10
2019-01-27T03:47:13.204Z,26.93
2019-01-27T03:49:44.144Z,28.93
2019-01-27T03:52:15.031Z,29.93
2019-01-27T03:54:45.936Z,30.37
2019-01-27T03:57:19.852Z,30.40
2019-01-27T03:59:50.742Z,25.43
2019-01-27T04:02:21.720Z,23.40
2019-01-27T04:04:52.663Z,30.87
2019-01-27T04:07:23.547Z,34.00
2019-01-27T04:09:54.436Z,35.47
2019-01-27T04:12:25.390Z,31.10
2019-01-27T04:14:56.277Z,48.83
2019-01-27T04:17:27.331Z,33.60
2019-01-27T04:19:58.360Z,27.27
2019-01-27T04:22:29.309Z,28.97
2019-01-27T04:25:00.297Z,24.70
2019-01-27T04:27:31.326Z,35.83
2019-01-27T04:30:02.211Z,33.60
2019-01-27T04:32:33.082Z,34.93
2019-01-27T04:35:08.769Z,33.73
2019-01-27T04:37:39.850Z,27.57
2019-01-27T04:40:14.406Z,29.00
2019-01-27T04:42:45.394Z,24.63
2019-01-27T04:45:19.026Z,25.93
2019-01-27T04:47:49.916Z,33.17
2019-01-27T04:50:20.855Z,177.97
2019-01-27T04:52:51.943Z,147.60
2019-01-27T04:55:22.845Z,147.43
2019-01-27T04:57:53.851Z,90.90
2019-01-27T05:00:25.256Z,64.97
2019-01-27T05:03:12.117Z,45.90
2019-01-27T05:05:42.999Z,36.23
2019-01-27T05:08:13.893Z,46.77
2019-01-27T05:10:44.828Z,66.10
2019-01-27T05:13:15.732Z,107.33
2019-01-27T05:15:46.611Z,151.47
2019-01-27T05:18:17.733Z,144.07
2019-01-27T05:20:48.841Z,134.13
2019-01-27T05:23:21.140Z,145.77
2019-01-27T05:25:52.030Z,134.30
2019-01-27T05:28:22.911Z,158.77
2019-01-27T05:30:53.846Z,113.90
2019-01-27T05:33:24.738Z,158.73
2019-01-27T05:35:55.645Z,73.47
2019-01-27T05:38:26.662Z,56.40
2019-01-27T05:40:57.551Z,56.30
2019-01-27T05:43:28.427Z,67.37
2019-01-27T05:45:59.376Z,53.67
2019-01-27T05:48:30.282Z,51.07
2019-01-27T05:51:01.164Z,102.37
2019-01-27T05:53:32.160Z,102.13
2019-01-27T05:56:03.052Z,88.43
2019-01-27T05:58:34.035Z,57.17
2019-01-27T06:01:04.950Z,66.97
2019-01-27T06:03:35.847Z,80.70
2019-01-27T06:06:06.742Z,107.90
2019-01-27T06:08:37.716Z,88.60
2019-01-27T06:11:08.590Z,78.97
2019-01-27T06:13:39.483Z,103.37
2019-01-27T06:16:10.414Z,140.73
2019-01-27T06:18:41.341Z,65.97
2019-01-27T06:21:12.465Z,53.97
2019-01-27T06:23:44.408Z,566.47
2019-01-27T06:26:15.310Z,129.83
2019-01-27T06:28:46.203Z,59.03
2019-01-27T06:31:17.129Z,116.07
2019-01-27T06:34:00.911Z,121.23
2019-01-27T06:36:31.837Z,150.07
2019-01-27T06:39:02.958Z,115.83
2019-01-27T06:41:33.982Z,92.30
2019-01-27T06:44:05.008Z,74.17
2019-01-27T06:46:35.896Z,74.83
2019-01-27T06:49:09.054Z,70.27
2019-01-27T06:51:40.081Z,76.53
2019-01-27T06:54:11.007Z,97.17
2019-01-27T06:56:41.913Z,107.60
2019-01-27T06:59:27.604Z,107.93
2019-01-27T07:02:05.272Z,122.90
2019-01-27T07:04:45.672Z,102.30
2019-01-27T07:07:23.630Z,88.20
2019-01-27T07:10:13.746Z,134.33
2019-01-27T07:12:53.876Z,87.93
2019-01-27T07:15:50.001Z,92.00
2019-01-27T07:18:47.490Z,78.30
2019-01-27T07:21:44.466Z,64.87
2019-01-27T07:24:37.366Z,71.23
2019-01-27T07:27:24.169Z,45.00
2019-01-27T07:30:16.992Z,85.67
2019-01-27T07:33:15.676Z,68.60
2019-01-27T07:36:00.112Z,78.80
2019-01-27T07:38:51.041Z,94.57
2019-01-27T07:41:52.947Z,79.57
2019-01-27T07:44:46.797Z,81.73
2019-01-27T07:47:36.213Z,90.73
2019-01-27T07:50:26.424Z,84.70
2019-01-27T07:53:11.824Z,71.90
2019-01-27T07:56:03.085Z,116.67
2019-01-27T07:59:05.048Z,79.60
2019-01-27T08:01:47.021Z,174.60
2019-01-27T08:04:35.649Z,125.17
2019-01-27T08:07:24.368Z,85.37
2019-01-27T08:10:12.909Z,66.80
2019-01-27T08:13:03.696Z,70.90
2019-01-27T08:15:55.075Z,75.87
2019-01-27T08:18:43.417Z,86.23
2019-01-27T08:21:46.368Z,112.17
2019-01-27T08:24:38.299Z,102.47
2019-01-27T08:27:31.223Z,84.53
2019-01-27T08:30:27.002Z,59.93
2019-01-27T08:33:35.719Z,74.40
2019-01-27T08:36:23.315Z,58.03
2019-01-27T08:39:13.730Z,67.37
2019-01-27T08:42:17.240Z,72.90
2019-01-27T08:45:16.260Z,38.97
2019-01-27T08:47:48.212Z,39.03
2019-01-27T08:50:19.752Z,54.87
2019-01-27T08:52:50.668Z,50.23
2019-01-27T08:55:21.681Z,52.50
2019-01-27T08:57:54.871Z,69.73
2019-01-27T09:00:44.749Z,86.20
2019-01-27T09:03:40.791Z,82.80
2019-01-27T09:06:46.308Z,145.70
2019-01-27T09:09:42.134Z,79.27
2019-01-27T09:12:31.938Z,96.93
2019-01-27T09:15:21.707Z,72.50
2019-01-27T09:18:20.498Z,74.93
2019-01-27T09:21:08.797Z,78.73
2019-01-27T09:23:53.675Z,51.77
2019-01-27T09:26:49.592Z,74.40
2019-01-27T09:29:38.391Z,92.10
2019-01-27T09:32:30.943Z,58.13
2019-01-27T09:35:19.255Z,61.87
2019-01-27T09:38:21.972Z,153.40
2019-01-27T09:41:11.774Z,79.37
2019-01-27T09:44:00.203Z,123.93
2019-01-27T09:47:08.097Z,97.73
2019-01-27T09:49:56.680Z,87.77
2019-01-27T09:52:49.272Z,74.60
2019-01-27T09:55:44.842Z,59.23
2019-01-27T09:58:33.392Z,64.20
2019-01-27T10:01:31.516Z,127.10
2019-01-27T10:04:27.191Z,67.13
2019-01-27T10:07:09.151Z,98.07
2019-01-27T10:10:02.115Z,63.10
2019-01-27T10:13:01.063Z,55.97
2019-01-27T10:15:49.485Z,86.00
2019-01-27T10:18:31.091Z,61.50
2019-01-27T10:21:08.286Z,48.80
2019-01-27T10:23:51.852Z,79.13
2019-01-27T10:26:41.682Z,91.50
2019-01-27T10:29:46.538Z,62.23
2019-01-27T10:32:28.287Z,76.77
2019-01-27T10:35:06.926Z,68.07
2019-01-27T10:38:00.086Z,65.17
2019-01-27T10:40:40.038Z,96.97
2019-01-27T10:43:25.898Z,76.20
2019-01-27T10:46:09.610Z,91.07
2019-01-27T10:49:02.196Z,91.73
2019-01-27T10:51:51.953Z,74.63
2019-01-27T10:54:40.572Z,77.70
2019-01-27T10:57:36.360Z,75.93
2019-01-27T11:00:29.382Z,72.90
2019-01-27T11:03:37.383Z,77.50
2019-01-27T11:06:27.189Z,80.00
2019-01-27T11:09:17.288Z,114.67
2019-01-27T11:12:09.924Z,53.47
2019-01-27T11:14:58.566Z,115.23
2019-01-27T11:17:47.047Z,112.47
2019-01-27T11:20:39.983Z,103.73
2019-01-27T11:23:20.197Z,111.37
2019-01-27T11:26:09.011Z,113.83
2019-01-27T11:29:04.977Z,163.13
2019-01-27T11:31:59.097Z,100.33
2019-01-27T11:34:47.473Z,101.90
2019-01-27T11:37:49.217Z,120.50
2019-01-27T11:40:47.323Z,127.00
2019-01-27T11:43:44.511Z,112.60
2019-01-27T11:46:35.074Z,112.90
2019-01-27T11:49:16.733Z,120.30
2019-01-27T11:51:51.608Z,123.17
2019-01-27T11:54:22.501Z,123.43
2019-01-27T11:56:53.386Z,121.80
2019-01-27T11:59:24.297Z,129.43
2019-01-27T12:01:55.171Z,156.07
2019-01-27T12:04:26.052Z,128.83
2019-01-27T12:06:57.027Z,129.87
2019-01-27T12:09:28.077Z,123.90
2019-01-27T12:12:00.890Z,186.27
2019-01-27T12:14:31.806Z,104.03
2019-01-27T12:17:02.669Z,128.50
2019-01-27T12:19:33.536Z,113.30
2019-01-27T12:22:07.545Z,100.70
2019-01-27T12:24:38.426Z,113.30
2019-01-27T12:27:12.443Z,124.83
2019-01-27T12:29:43.358Z,96.80
2019-01-27T12:32:14.229Z,135.47
2019-01-27T12:34:45.094Z,143.13
2019-01-27T12:37:18.276Z,127.67
2019-01-27T12:39:49.248Z,132.63
2019-01-27T12:42:20.273Z,156.73
2019-01-27T12:44:52.124Z,137.87
2019-01-27T12:47:23.004Z,127.30
2019-01-27T12:49:53.933Z,121.37
2019-01-27T12:52:24.903Z,131.17
2019-01-27T12:54:55.803Z,134.93
2019-01-27T12:57:26.707Z,145.13
2019-01-27T12:59:57.625Z,116.17
2019-01-27T13:02:34.482Z,120.73
2019-01-27T13:05:10.248Z,124.47
2019-01-27T13:07:38.878Z,126.87
2019-01-27T13:10:12.189Z,173.07
2019-01-27T13:12:43.254Z,177.47
2019-01-27T13:15:15.909Z,233.07
2019-01-27T13:17:50.406Z,166.70
2019-01-27T13:20:21.764Z,162.50
2019-01-27T13:22:59.765Z,486.13
2019-01-27T13:25:32.161Z,264.40
2019-01-27T13:28:03.446Z,336.20
2019-01-27T13:30:36.015Z,338.20
2019-01-27T13:33:07.139Z,358.67
2019-01-27T13:35:38.987Z,204.33
2019-01-27T13:38:10.682Z,118.80
2019-01-27T13:40:41.705Z,150.93
2019-01-27T13:43:15.773Z,284.27
2019-01-27T13:45:47.836Z,243.70
2019-01-27T13:48:18.787Z,230.20
2019-01-27T13:50:49.665Z,184.73
2019-01-27T13:53:20.556Z,116.67
2019-01-27T13:55:51.473Z,98.27
2019-01-27T13:58:22.374Z,114.30
2019-01-27T14:00:53.275Z,113.13
2019-01-27T14:03:24.195Z,161.43
2019-01-27T14:05:55.202Z,163.10
2019-01-27T14:08:27.163Z,159.37
2019-01-27T14:10:58.456Z,189.93
2019-01-27T14:13:29.558Z,201.03
2019-01-27T14:16:00.456Z,176.83
2019-01-27T14:18:31.503Z,144.83
2019-01-27T14:21:02.964Z,155.23
2019-01-27T14:23:33.931Z,224.37
2019-01-27T14:26:05.124Z,204.03
2019-01-27T14:28:36.182Z,147.63
2019-01-27T14:31:07.110Z,534.67
2019-01-27T14:33:38.622Z,491.10
2019-01-27T14:36:09.673Z,394.10
2019-01-27T14:38:40.671Z,435.43
2019-01-27T14:41:11.633Z,442.97
2019-01-27T14:43:45.497Z,180.50
2019-01-27T14:46:17.870Z,169.50
2019-01-27T14:48:49.312Z,234.53
2019-01-27T14:51:20.299Z,244.73
2019-01-27T14:53:51.221Z,232.37
2019-01-27T14:56:22.171Z,257.63
2019-01-27T14:58:53.121Z,247.90
2019-01-27T15:01:25.027Z,266.83
2019-01-27T15:03:56.013Z,264.23
2019-01-27T15:06:29.677Z,293.67
2019-01-27T15:09:00.586Z,351.17
2019-01-27T15:11:31.618Z,505.70
2019-01-27T15:14:02.508Z,462.37
2019-01-27T15:16:33.434Z,367.40
2019-01-27T15:19:05.142Z,413.47
2019-01-27T15:21:36.333Z,340.70
2019-01-27T15:24:07.379Z,304.63
2019-01-27T15:26:38.327Z,359.07
2019-01-27T15:29:09.305Z,354.90
2019-01-27T15:31:41.218Z,227.47
2019-01-27T15:34:12.161Z,233.40
2019-01-27T15:36:43.049Z,160.37
2019-01-27T15:39:13.950Z,177.53
2019-01-27T15:41:50.208Z,181.33
2019-01-27T15:44:21.503Z,248.87
2019-01-27T15:46:52.527Z,330.43
2019-01-27T15:49:23.657Z,252.27
2019-01-27T15:51:54.664Z,222.87
2019-01-27T15:54:25.627Z,176.10
2019-01-27T15:56:56.864Z,294.73
2019-01-27T15:59:27.785Z,326.53
2019-01-27T16:01:58.744Z,356.23
2019-01-27T16:04:29.696Z,309.30
2019-01-27T16:07:00.787Z,311.53
2019-01-27T16:09:31.766Z,302.60
2019-01-27T16:12:03.040Z,412.40
2019-01-27T16:14:33.998Z,337.20
2019-01-27T16:17:05.243Z,381.77
2019-01-27T16:19:36.562Z,354.97
2019-01-27T16:22:08.494Z,511.53
2019-01-27T16:24:40.326Z,552.37
2019-01-27T16:27:11.399Z,315.57
2019-01-27T16:29:58.106Z,326.50
2019-01-27T16:32:32.721Z,219.13
2019-01-27T16:35:09.614Z,393.40
2019-01-27T16:37:40.681Z,392.70
2019-01-27T16:40:14.777Z,398.17
2019-01-27T16:42:45.880Z,344.93
2019-01-27T16:45:19.847Z,319.40
2019-01-27T16:47:50.753Z,186.03
2019-01-27T16:50:21.939Z,278.50
2019-01-27T16:52:52.870Z,396.30
2019-01-27T16:55:24.908Z,376.50
2019-01-27T16:58:02.141Z,416.65
2019-01-27T17:00:39.149Z,221.43
2019-01-27T17:03:11.135Z,173.77
2019-01-27T17:05:42.430Z,188.43
2019-01-27T17:08:13.531Z,202.27
2019-01-27T17:10:44.492Z,167.90
2019-01-27T17:13:20.854Z,288.73
2019-01-27T17:15:51.924Z,259.40
2019-01-27T17:18:22.881Z,229.40
2019-01-27T17:20:53.812Z,267.77
2019-01-27T17:23:25.117Z,233.47
2019-01-27T17:26:01.384Z,153.57
2019-01-27T17:28:32.449Z,107.90
2019-01-27T17:31:03.480Z,134.30
2019-01-27T17:33:34.390Z,173.37
2019-01-27T17:36:05.485Z,190.97
2019-01-27T17:38:40.561Z,262.47
2019-01-27T17:41:09.131Z,268.60
2019-01-27T17:43:40.136Z,318.27
2019-01-27T17:46:11.077Z,423.63
2019-01-27T17:48:42.094Z,420.20
2019-01-27T17:51:13.203Z,491.63
2019-01-27T17:53:50.404Z,1700.07
2019-01-27T17:56:21.411Z,352.30
2019-01-27T17:59:19.173Z,260.13
2019-01-27T18:02:08.091Z,291.10
2019-01-27T18:04:50.091Z,515.60
2019-01-27T18:07:38.831Z,440.50
2019-01-27T18:10:19.445Z,340.17
2019-01-27T18:13:09.367Z,280.40
2019-01-27T18:15:40.397Z,162.87
2019-01-27T18:18:11.502Z,414.43
2019-01-27T18:20:42.450Z,284.13
2019-01-27T18:23:13.458Z,195.53
2019-01-27T18:25:44.523Z,201.30
2019-01-27T18:28:15.562Z,288.13
2019-01-27T18:30:46.603Z,327.43
2019-01-27T18:33:17.856Z,396.53
2019-01-27T18:35:48.769Z,455.07
2019-01-27T18:38:19.733Z,478.67
2019-01-27T18:40:50.876Z,459.37
2019-01-27T18:43:21.911Z,459.50
2019-01-27T18:45:54.690Z,511.20
2019-01-27T18:48:25.670Z,465.13
2019-01-27T18:50:56.592Z,430.27
2019-01-27T18:53:53.431Z,429.13
2019-01-27T18:56:39.268Z,467.73
2019-01-27T18:59:35.074Z,460.50
2019-01-27T19:02:34.436Z,418.60
2019-01-27T19:05:28.059Z,393.50
2019-01-27T19:08:05.721Z,394.30
2019-01-27T19:11:00.304Z,342.53
2019-01-27T19:13:53.256Z,285.03
2019-01-27T19:16:49.406Z,295.57
2019-01-27T19:19:42.045Z,237.13
2019-01-27T19:22:24.801Z,235.57
2019-01-27T19:25:17.808Z,228.70
2019-01-27T19:28:03.971Z,257.63
2019-01-27T19:31:05.910Z,260.07
2019-01-27T19:33:47.958Z,225.33
2019-01-27T19:36:38.642Z,275.80
2019-01-27T19:39:36.239Z,254.90
2019-01-27T19:42:29.238Z,261.33
2019-01-27T19:45:23.064Z,310.13
2019-01-27T19:48:15.751Z,338.17
2019-01-27T19:51:09.137Z,421.07
2019-01-27T19:54:02.302Z,462.57
2019-01-27T19:56:43.443Z,365.03
2019-01-27T19:59:33.379Z,442.60
2019-01-27T20:02:26.440Z,269.07
2019-01-27T20:05:14.846Z,223.37
2019-01-27T20:07:51.158Z,173.00
2019-01-27T20:10:50.268Z,221.43
2019-01-27T20:13:36.205Z,215.60
2019-01-27T20:16:32.470Z,283.90
2019-01-27T20:19:21.635Z,278.07
2019-01-27T20:22:20.869Z,200.10
2019-01-27T20:25:10.865Z,208.10
2019-01-27T20:28:18.919Z,253.50
2019-01-27T20:31:02.182Z,216.70
2019-01-27T20:33:43.596Z,210.20
2019-01-27T20:36:40.769Z,211.80
2019-01-27T20:39:30.799Z,301.90
2019-01-27T20:42:15.180Z,234.37
2019-01-27T20:45:18.752Z,320.17
2019-01-27T20:48:21.198Z,301.93
2019-01-27T20:51:16.945Z,231.10
2019-01-27T20:54:12.620Z,213.57
2019-01-27T20:57:03.933Z,246.73
2019-01-27T21:00:11.479Z,204.87
2019-01-27T21:03:21.949Z,175.97
2019-01-27T21:06:31.623Z,176.93
2019-01-27T21:09:46.366Z,227.93
2019-01-27T21:13:01.052Z,189.10
2019-01-27T21:16:05.267Z,261.13
2019-01-27T21:19:00.462Z,190.80
2019-01-27T21:21:49.770Z,252.23
2019-01-27T21:24:39.078Z,243.80
2019-01-27T21:27:28.541Z,177.77
2019-01-27T21:30:18.535Z,204.67
2019-01-27T21:33:07.982Z,210.40
2019-01-27T21:35:57.690Z,192.07
2019-01-27T21:38:48.279Z,198.27
2019-01-27T21:41:36.960Z,269.37
2019-01-27T21:44:26.417Z,199.30
2019-01-27T21:47:15.946Z,183.03
2019-01-27T21:49:46.865Z,207.07
2019-01-27T21:52:18.866Z,218.80
2019-01-27T21:54:50.530Z,156.87
2019-01-27T21:57:21.814Z,130.83
2019-01-27T21:59:52.909Z,171.93
2019-01-27T22:02:23.847Z,258.60
2019-01-27T22:04:54.774Z,233.50
2019-01-27T22:07:25.680Z,198.50
2019-01-27T22:09:56.684Z,166.93
2019-01-27T22:12:27.584Z,151.40
2019-01-27T22:14:58.495Z,134.77
2019-01-27T22:17:29.431Z,171.17
2019-01-27T22:20:01.966Z,254.50
2019-01-27T22:22:32.899Z,226.67
2019-01-27T22:25:05.255Z,200.63
2019-01-27T22:27:36.161Z,252.00
2019-01-27T22:30:10.238Z,214.40
2019-01-27T22:32:45.588Z,211.43
2019-01-27T22:35:16.582Z,203.23
2019-01-27T22:37:47.730Z,207.10
2019-01-27T22:40:18.736Z,219.27
2019-01-27T22:42:49.648Z,214.87
2019-01-27T22:45:22.438Z,179.63
2019-01-27T22:47:53.444Z,183.63
2019-01-27T22:50:24.353Z,188.53
2019-01-27T22:52:55.292Z,158.07
2019-01-27T22:55:26.191Z,145.57
2019-01-27T22:57:57.102Z,133.20
2019-01-27T23:00:59.394Z,135.13
2019-01-27T23:03:32.829Z,121.80
2019-01-27T23:06:03.724Z,134.10
2019-01-27T23:08:34.675Z,120.13
2019-01-27T23:11:05.679Z,94.57
2019-01-27T23:13:36.608Z,104.50
2019-01-27T23:16:07.817Z,142.30
2019-01-27T23:18:38.729Z,115.70
2019-01-27T23:21:09.757Z,108.03
2019-01-27T23:23:40.735Z,111.27
2019-01-27T23:26:11.742Z,129.70
2019-01-27T23:28:42.704Z,165.17
2019-01-27T23:31:13.683Z,149.27
2019-01-27T23:33:44.698Z,175.10
2019-01-27T23:36:16.637Z,250.63
2019-01-27T23:38:47.582Z,186.80
2019-01-27T23:41:21.537Z,169.30
2019-01-27T23:43:52.676Z,175.73
2019-01-27T23:46:23.578Z,197.20
2019-01-27T23:48:54.640Z,169.03
2019-01-27T23:51:25.600Z,153.67
2019-01-27T23:53:57.694Z,129.27
2019-01-27T23:56:28.583Z,181.73
2019-01-27T23:59:00.652Z,154.47
